createdAt,value
2018-03-08T00:00:50.629Z,6.18
2018-03-08T00:03:18.224Z,6.22
2018-03-08T00:05:46.000Z,6.07
2018-03-08T00:08:13.592Z,6.09
2018-03-08T00:10:41.232Z,6.02
2018-03-08T00:13:08.831Z,5.99
2018-03-08T00:15:36.424Z,6.37
2018-03-08T00:18:04.029Z,6.29
2018-03-08T00:20:31.633Z,6.50
2018-03-08T00:22:59.532Z,6.69
2018-03-08T00:25:27.124Z,6.64
2018-03-08T00:27:54.720Z,6.41
2018-03-08T00:30:22.344Z,6.46
2018-03-08T00:32:49.947Z,6.53
2018-03-08T00:35:17.575Z,6.39
2018-03-08T00:37:45.226Z,6.49
2018-03-08T00:40:13.071Z,6.49
2018-03-08T00:42:40.652Z,6.45
2018-03-08T00:45:08.243Z,6.51
2018-03-08T00:47:35.853Z,6.48
2018-03-08T00:50:03.453Z,6.49
2018-03-08T00:52:31.057Z,6.49
2018-03-08T00:54:58.644Z,6.36
2018-03-08T00:57:26.603Z,6.53
2018-03-08T00:59:54.197Z,6.44
2018-03-08T01:02:21.776Z,6.49
2018-03-08T01:04:49.393Z,6.46
2018-03-08T01:07:17.058Z,6.49
2018-03-08T01:09:44.672Z,6.39
2018-03-08T01:12:12.254Z,6.41
2018-03-08T01:14:40.235Z,6.28
2018-03-08T01:17:07.820Z,6.33
2018-03-08T01:19:35.411Z,6.41
2018-03-08T01:22:03.032Z,6.34
2018-03-08T01:24:30.612Z,6.38
2018-03-08T01:26:58.216Z,6.29
2018-03-08T01:29:25.800Z,6.32
2018-03-08T01:31:53.711Z,6.16
2018-03-08T01:34:21.296Z,6.18
2018-03-08T01:36:48.879Z,6.18
2018-03-08T01:39:16.480Z,6.16
2018-03-08T01:41:44.108Z,6.09
2018-03-08T01:44:11.724Z,6.02
2018-03-08T01:46:39.320Z,5.99
2018-03-08T01:49:06.951Z,6.13
2018-03-08T01:51:34.539Z,6.10
2018-03-08T01:54:02.121Z,6.02
2018-03-08T01:56:29.730Z,6.04
2018-03-08T01:58:57.329Z,5.95
2018-03-08T02:01:24.948Z,5.87
2018-03-08T02:03:52.535Z,5.90
2018-03-08T02:06:20.639Z,5.90
2018-03-08T02:08:48.232Z,5.82
2018-03-08T02:11:15.820Z,5.75
2018-03-08T02:13:43.427Z,5.89
2018-03-08T02:16:11.023Z,5.90
2018-03-08T02:18:38.632Z,5.85
2018-03-08T02:21:06.228Z,5.83
2018-03-08T02:23:33.864Z,6.08
2018-03-08T02:26:01.462Z,5.91
2018-03-08T02:28:29.078Z,5.81
2018-03-08T02:30:56.694Z,5.84
2018-03-08T02:33:24.299Z,5.91
2018-03-08T02:35:51.913Z,5.83
2018-03-08T02:38:19.493Z,5.89
2018-03-08T02:40:47.500Z,6.09
2018-03-08T02:43:15.108Z,5.83
2018-03-08T02:45:42.703Z,5.89
2018-03-08T02:48:10.311Z,5.72
2018-03-08T02:50:37.897Z,5.80
2018-03-08T02:53:05.518Z,5.71
2018-03-08T02:55:33.178Z,5.76
2018-03-08T02:58:00.798Z,5.83
2018-03-08T03:00:28.394Z,5.86
2018-03-08T03:02:55.988Z,5.80
2018-03-08T03:05:23.608Z,6.14
2018-03-08T03:07:51.195Z,6.20
2018-03-08T03:10:18.808Z,6.24
2018-03-08T03:12:46.399Z,6.04
2018-03-08T03:15:14.155Z,5.95
2018-03-08T03:17:41.744Z,5.85
2018-03-08T03:20:09.338Z,5.89
2018-03-08T03:22:36.948Z,5.98
2018-03-08T03:25:04.549Z,5.82
2018-03-08T03:27:32.168Z,5.72
2018-03-08T03:29:59.765Z,5.71
2018-03-08T03:32:27.582Z,5.67
2018-03-08T03:34:55.168Z,6.00
2018-03-08T03:37:22.759Z,5.93
2018-03-08T03:39:50.372Z,6.03
2018-03-08T03:42:17.964Z,5.92
2018-03-08T03:44:45.571Z,5.88
2018-03-08T03:47:13.156Z,5.84
2018-03-08T03:49:41.024Z,5.86
2018-03-08T03:52:08.616Z,5.86
2018-03-08T03:54:36.207Z,5.82
2018-03-08T03:57:03.810Z,5.78
2018-03-08T03:59:31.400Z,5.77
2018-03-08T04:01:59.008Z,5.83
2018-03-08T04:04:26.596Z,5.82
2018-03-08T04:06:54.554Z,5.81
2018-03-08T04:09:22.151Z,5.82
2018-03-08T04:11:49.754Z,6.05
2018-03-08T04:14:17.368Z,5.77
2018-03-08T04:16:44.963Z,5.60
2018-03-08T04:19:12.661Z,5.57
2018-03-08T04:21:40.272Z,5.51
2018-03-08T04:24:08.085Z,5.41
2018-03-08T04:26:35.669Z,5.37
2018-03-08T04:29:03.261Z,5.45
2018-03-08T04:31:30.873Z,5.40
2018-03-08T04:33:58.481Z,5.41
2018-03-08T04:36:26.086Z,5.47
2018-03-08T04:38:53.690Z,5.51
2018-03-08T04:41:21.328Z,5.67
2018-03-08T04:43:48.912Z,5.77
2018-03-08T04:46:16.493Z,5.92
2018-03-08T04:48:44.091Z,5.87
2018-03-08T04:51:11.685Z,5.78
2018-03-08T04:53:39.411Z,5.67
2018-03-08T04:56:07.011Z,5.58
2018-03-08T04:58:34.610Z,5.47
2018-03-08T05:01:02.225Z,5.50
2018-03-08T05:03:29.811Z,5.56
2018-03-08T05:05:57.454Z,5.49
2018-03-08T05:08:25.041Z,5.52
2018-03-08T05:10:52.664Z,5.60
2018-03-08T05:13:20.249Z,5.45
2018-03-08T05:15:47.868Z,5.28
2018-03-08T05:18:15.600Z,5.08
2018-03-08T05:20:43.263Z,5.17
2018-03-08T05:23:10.868Z,5.32
2018-03-08T05:25:38.520Z,5.26
2018-03-08T05:28:06.191Z,4.98
2018-03-08T05:30:33.872Z,4.95
2018-03-08T05:33:01.610Z,4.84
2018-03-08T05:35:29.205Z,4.76
2018-03-08T05:37:57.024Z,4.67
2018-03-08T05:40:24.663Z,4.64
2018-03-08T05:42:52.266Z,4.63
2018-03-08T05:45:19.873Z,4.59
2018-03-08T05:47:47.460Z,4.59
2018-03-08T05:50:15.119Z,4.60
2018-03-08T05:52:42.725Z,4.55
2018-03-08T05:55:10.393Z,4.62
2018-03-08T05:57:38.092Z,4.56
2018-03-08T06:00:05.792Z,4.76
2018-03-08T06:02:33.413Z,4.68
2018-03-08T06:05:01.088Z,4.76
2018-03-08T06:07:28.723Z,4.77
2018-03-08T06:09:56.393Z,4.66
2018-03-08T06:12:24.088Z,4.76
2018-03-08T06:14:51.722Z,4.85
2018-03-08T06:17:19.397Z,5.03
2018-03-08T06:19:47.097Z,4.99
2018-03-08T06:22:14.701Z,5.06
2018-03-08T06:24:42.320Z,5.18
2018-03-08T06:27:10.003Z,5.23
2018-03-08T06:29:37.637Z,5.32
2018-03-08T06:32:05.244Z,5.34
2018-03-08T06:34:32.876Z,5.26
2018-03-08T06:37:00.524Z,5.28
2018-03-08T06:39:28.113Z,5.30
2018-03-08T06:41:55.731Z,5.38
2018-03-08T06:44:23.327Z,5.41
2018-03-08T06:46:51.203Z,5.41
2018-03-08T06:49:18.840Z,5.44
2018-03-08T06:51:46.437Z,5.56
2018-03-08T06:54:14.093Z,5.56
2018-03-08T06:56:41.679Z,5.67
2018-03-08T06:59:09.312Z,5.85
2018-03-08T07:01:36.900Z,5.89
2018-03-08T07:04:04.558Z,5.92
2018-03-08T07:06:32.165Z,5.94
2018-03-08T07:08:59.763Z,6.02
2018-03-08T07:11:27.380Z,5.95
2018-03-08T07:13:54.980Z,6.16
2018-03-08T07:16:22.583Z,6.31
2018-03-08T07:18:50.228Z,6.37
2018-03-08T07:21:17.863Z,6.49
2018-03-08T07:23:45.448Z,6.29
2018-03-08T07:26:13.049Z,6.35
2018-03-08T07:28:40.715Z,6.24
2018-03-08T07:31:08.276Z,6.44
2018-03-08T07:33:35.893Z,6.53
2018-03-08T07:36:03.480Z,6.45
2018-03-08T07:38:31.284Z,6.57
2018-03-08T07:40:58.884Z,6.56
2018-03-08T07:43:26.472Z,6.69
2018-03-08T07:45:54.092Z,6.69
2018-03-08T07:48:21.691Z,6.72
2018-03-08T07:50:49.308Z,6.82
2018-03-08T07:53:16.888Z,6.74
2018-03-08T07:55:44.899Z,6.72
2018-03-08T07:58:12.561Z,6.80
2018-03-08T08:00:40.219Z,6.77
2018-03-08T08:03:07.825Z,6.78
2018-03-08T08:05:47.028Z,6.62
2018-03-08T08:08:26.255Z,6.49
2018-03-08T08:10:53.844Z,6.58
2018-03-08T08:13:21.476Z,6.67
2018-03-08T08:15:49.717Z,6.96
2018-03-08T08:18:17.332Z,6.99
2018-03-08T08:20:44.916Z,7.22
2018-03-08T08:23:12.570Z,7.07
2018-03-08T08:25:40.160Z,7.10
2018-03-08T08:28:07.852Z,7.31
2018-03-08T08:30:35.826Z,7.24
2018-03-08T08:33:03.441Z,7.42
2018-03-08T08:35:31.146Z,7.46
2018-03-08T08:37:58.741Z,7.32
2018-03-08T08:40:26.718Z,7.07
2018-03-08T08:42:54.314Z,7.07
2018-03-08T08:45:21.899Z,7.09
2018-03-08T08:47:49.513Z,7.17
2018-03-08T08:50:17.104Z,7.39
2018-03-08T08:52:44.783Z,7.19
2018-03-08T08:55:13.254Z,7.03
2018-03-08T08:57:41.089Z,7.14
2018-03-08T09:00:09.680Z,6.98
2018-03-08T09:02:37.313Z,7.02
2018-03-08T09:05:04.946Z,7.21
2018-03-08T09:07:32.579Z,7.11
2018-03-08T09:10:00.183Z,7.21
2018-03-08T09:12:27.768Z,7.26
2018-03-08T09:14:55.358Z,7.56
2018-03-08T09:17:22.991Z,7.63
2018-03-08T09:19:50.590Z,7.53
2018-03-08T09:22:18.464Z,7.68
2018-03-08T09:24:46.052Z,7.41
2018-03-08T09:27:13.633Z,7.58
2018-03-08T09:29:41.252Z,7.50
2018-03-08T09:32:08.845Z,7.89
2018-03-08T09:34:36.477Z,7.85
2018-03-08T09:37:04.146Z,8.02
2018-03-08T09:39:33.052Z,8.04
2018-03-08T09:42:00.936Z,8.16
2018-03-08T09:44:28.543Z,8.20
2018-03-08T09:46:56.160Z,8.27
2018-03-08T09:49:23.797Z,8.45
2018-03-08T09:51:51.768Z,8.75
2018-03-08T09:54:19.735Z,8.81
2018-03-08T09:56:47.708Z,8.71
2018-03-08T09:59:15.308Z,8.62
2018-03-08T10:01:42.895Z,8.75
2018-03-08T10:04:10.517Z,8.73
2018-03-08T10:06:38.217Z,8.91
2018-03-08T10:09:05.835Z,8.72
2018-03-08T10:11:33.436Z,8.76
2018-03-08T10:14:01.183Z,9.07
2018-03-08T10:16:28.768Z,9.40
2018-03-08T10:18:56.375Z,9.34
2018-03-08T10:21:44.339Z,9.25
2018-03-08T10:23:51.825Z,9.42
2018-03-08T10:26:19.859Z,9.64
2018-03-08T10:28:47.441Z,9.51
2018-03-08T10:31:15.353Z,9.59
2018-03-08T10:33:42.943Z,9.38
2018-03-08T10:36:10.534Z,9.50
2018-03-08T10:38:38.139Z,9.46
2018-03-08T10:41:05.779Z,9.34
2018-03-08T10:43:33.372Z,9.19
2018-03-08T10:46:00.959Z,9.23
2018-03-08T10:48:28.591Z,9.08
2018-03-08T10:50:56.426Z,8.99
2018-03-08T10:53:24.277Z,9.05
2018-03-08T10:55:52.316Z,9.00
2018-03-08T10:58:19.912Z,9.34
2018-03-08T11:01:02.067Z,9.25
2018-03-08T11:03:48.120Z,9.14
2018-03-08T11:06:20.565Z,9.16
2018-03-08T11:08:48.143Z,9.30
2018-03-08T11:11:15.981Z,9.48
2018-03-08T11:13:43.576Z,9.79
2018-03-08T11:16:11.161Z,9.66
2018-03-08T11:18:38.802Z,9.58
2018-03-08T11:21:06.390Z,9.86
2018-03-08T11:23:34.394Z,9.94
2018-03-08T11:26:02.260Z,10.04
2018-03-08T11:28:29.993Z,10.09
2018-03-08T11:30:57.596Z,10.14
2018-03-08T11:33:25.194Z,10.28
2018-03-08T11:35:52.807Z,10.48
2018-03-08T11:38:20.403Z,10.37
2018-03-08T11:40:48.112Z,10.44
2018-03-08T11:43:15.705Z,10.35
2018-03-08T11:45:43.340Z,10.32
2018-03-08T11:48:11.089Z,10.41
2018-03-08T11:50:38.698Z,10.36
2018-03-08T11:53:06.743Z,10.39
2018-03-08T11:55:34.715Z,10.38
2018-03-08T11:58:02.376Z,10.38
2018-03-08T12:00:30.003Z,10.42
2018-03-08T12:02:58.090Z,10.44
2018-03-08T12:05:27.765Z,10.71
2018-03-08T12:07:55.700Z,10.72
2018-03-08T12:10:23.378Z,10.86
2018-03-08T12:12:50.962Z,10.82
2018-03-08T12:15:18.580Z,11.15
2018-03-08T12:17:46.174Z,11.38
2018-03-08T12:20:14.077Z,11.42
2018-03-08T12:22:42.041Z,11.56
2018-03-08T12:25:09.865Z,11.61
2018-03-08T12:27:37.479Z,11.69
2018-03-08T12:30:05.320Z,11.61
2018-03-08T12:32:32.931Z,11.59
2018-03-08T12:35:00.610Z,11.89
2018-03-08T12:37:28.651Z,12.23
2018-03-08T12:42:58.577Z,13.01
2018-03-08T12:45:26.906Z,12.63
2018-03-08T12:47:54.718Z,12.59
2018-03-08T12:50:22.324Z,13.25
2018-03-08T12:52:50.080Z,12.45
2018-03-08T12:55:17.900Z,12.59
2018-03-08T12:57:45.507Z,12.42
2018-03-08T13:00:13.202Z,13.09
2018-03-08T13:02:40.855Z,12.82
2018-03-08T13:05:08.563Z,12.88
2018-03-08T13:07:36.179Z,14.10
2018-03-08T13:10:03.792Z,14.90
2018-03-08T13:12:31.563Z,15.93
2018-03-08T13:15:00.560Z,15.96
2018-03-08T13:17:28.544Z,15.87
2018-03-08T13:19:56.136Z,16.57
2018-03-08T13:22:24.170Z,16.26
2018-03-08T13:24:51.947Z,16.16
2018-03-08T13:27:19.535Z,17.05
2018-03-08T13:29:47.177Z,17.07
2018-03-08T13:32:14.768Z,16.76
2018-03-08T13:34:42.381Z,16.54
2018-03-08T13:37:09.977Z,16.35
2018-03-08T13:39:38.193Z,16.50
2018-03-08T13:42:05.791Z,15.77
2018-03-08T13:44:33.935Z,15.25
2018-03-08T13:47:01.551Z,14.66
2018-03-08T13:49:36.911Z,14.27
2018-03-08T13:52:04.827Z,14.06
2018-03-08T13:54:32.607Z,13.70
2018-03-08T13:57:00.432Z,13.45
2018-03-08T13:59:28.025Z,13.29
2018-03-08T14:01:55.635Z,13.34
2018-03-08T14:04:33.369Z,13.59
2018-03-08T14:07:01.226Z,13.77
2018-03-08T14:09:28.845Z,13.40
2018-03-08T14:11:56.421Z,13.11
2018-03-08T14:14:24.288Z,13.15
2018-03-08T14:16:51.879Z,12.50
2018-03-08T14:19:19.464Z,12.22
2018-03-08T14:21:47.239Z,12.35
2018-03-08T14:24:15.281Z,12.61
2018-03-08T14:26:43.149Z,12.78
2018-03-08T14:29:10.901Z,13.09
2018-03-08T14:31:38.998Z,13.08
2018-03-08T14:34:06.610Z,13.21
2018-03-08T14:36:34.199Z,13.03
2018-03-08T14:39:01.814Z,12.89
2018-03-08T14:41:33.499Z,12.69
2018-03-08T14:44:01.109Z,12.57
2018-03-08T14:46:28.688Z,12.73
2018-03-08T14:48:56.330Z,12.71
2018-03-08T14:51:23.916Z,12.73
2018-03-08T14:53:51.843Z,12.42
2018-03-08T14:56:19.912Z,12.64
2018-03-08T14:58:47.524Z,12.47
2018-03-08T15:01:15.225Z,12.38
2018-03-08T15:03:42.825Z,12.50
2018-03-08T15:06:10.852Z,12.43
2018-03-08T15:08:38.463Z,12.35
2018-03-08T15:11:06.075Z,12.31
2018-03-08T15:13:33.743Z,12.13
2018-03-08T15:16:01.424Z,11.99
2018-03-08T15:18:29.046Z,12.07
2018-03-08T15:20:56.673Z,12.09
2018-03-08T15:23:24.582Z,12.07
2018-03-08T15:25:52.373Z,12.08
2018-03-08T15:28:19.982Z,12.04
2018-03-08T15:30:47.597Z,12.03
2018-03-08T15:33:15.193Z,11.97
2018-03-08T15:35:42.815Z,12.03
2018-03-08T15:38:10.421Z,11.88
2018-03-08T15:40:38.543Z,11.90
2018-03-08T15:43:06.154Z,11.86
2018-03-08T15:45:33.757Z,11.82
2018-03-08T15:48:01.361Z,11.81
2018-03-08T15:50:28.959Z,11.81
2018-03-08T15:52:57.176Z,11.79
2018-03-08T15:55:25.146Z,11.72
2018-03-08T15:57:53.100Z,11.98
2018-03-08T16:00:21.066Z,11.86
2018-03-08T16:02:48.687Z,11.82
2018-03-08T16:05:16.365Z,11.83
2018-03-08T16:07:51.125Z,11.72
2018-03-08T16:13:18.629Z,11.64
2018-03-08T16:15:46.416Z,11.70
2018-03-08T16:18:14.123Z,11.62
2018-03-08T16:20:42.093Z,11.65
2018-03-08T16:23:10.072Z,11.63
2018-03-08T16:25:37.836Z,11.56
2018-03-08T16:28:05.716Z,11.61
2018-03-08T16:30:33.306Z,11.57
2018-03-08T16:33:00.924Z,11.45
2018-03-08T16:35:28.511Z,11.36
2018-03-08T16:37:56.345Z,11.39
2018-03-08T16:40:24.207Z,11.34
2018-03-08T16:42:51.802Z,11.30
2018-03-08T16:45:19.412Z,11.25
2018-03-08T16:47:47.010Z,11.12
2018-03-08T16:50:14.623Z,11.08
2018-03-08T16:52:42.451Z,11.09
2018-03-08T16:55:10.521Z,11.09
2018-03-08T16:57:38.115Z,11.09
2018-03-08T17:00:05.707Z,11.02
2018-03-08T17:02:33.316Z,10.86
2018-03-08T17:05:00.917Z,10.86
2018-03-08T17:07:28.533Z,10.77
2018-03-08T17:09:56.149Z,10.77
2018-03-08T17:12:23.924Z,10.73
2018-03-08T17:14:51.510Z,10.59
2018-03-08T17:17:19.104Z,10.50
2018-03-08T17:19:46.728Z,10.55
2018-03-08T17:22:14.316Z,10.42
2018-03-08T17:24:41.942Z,10.51
2018-03-08T17:27:09.555Z,10.52
2018-03-08T17:29:37.177Z,10.43
2018-03-08T17:32:04.771Z,10.23
2018-03-08T17:34:32.360Z,10.24
2018-03-08T17:36:59.972Z,10.20
2018-03-08T17:39:27.573Z,10.15
2018-03-08T17:41:55.193Z,10.20
2018-03-08T17:44:22.782Z,10.03
2018-03-08T17:46:50.690Z,10.01
2018-03-08T17:49:18.300Z,10.03
2018-03-08T17:51:45.884Z,10.14
2018-03-08T17:54:13.491Z,10.09
2018-03-08T17:56:41.074Z,9.99
2018-03-08T17:59:08.703Z,9.92
2018-03-08T18:01:36.305Z,9.78
2018-03-08T18:04:04.112Z,9.92
2018-03-08T18:06:31.702Z,9.93
2018-03-08T18:08:59.289Z,9.75
2018-03-08T18:11:26.908Z,9.80
2018-03-08T18:13:54.508Z,9.78
2018-03-08T18:16:22.133Z,9.86
2018-03-08T18:18:49.719Z,9.72
2018-03-08T18:21:17.554Z,9.75
2018-03-08T18:23:45.150Z,9.70
2018-03-08T18:26:12.732Z,9.54
2018-03-08T18:28:40.346Z,9.50
2018-03-08T18:31:07.936Z,9.46
2018-03-08T18:33:35.544Z,9.35
2018-03-08T18:36:03.132Z,9.25
2018-03-08T18:38:30.755Z,9.32
2018-03-08T18:40:58.348Z,9.28
2018-03-08T18:43:25.937Z,9.25
2018-03-08T18:45:53.547Z,9.14
2018-03-08T18:48:21.134Z,9.27
2018-03-08T18:50:48.748Z,8.97
2018-03-08T18:53:16.338Z,9.00
2018-03-08T18:55:43.959Z,8.98
2018-03-08T18:58:23.240Z,9.01
2018-03-08T19:00:50.873Z,8.85
2018-03-08T19:03:18.553Z,8.90
2018-03-08T19:05:46.116Z,8.81
2018-03-08T19:08:13.720Z,8.77
2018-03-08T19:10:41.314Z,8.75
2018-03-08T19:13:08.966Z,8.65
2018-03-08T19:15:36.605Z,8.72
2018-03-08T19:18:04.212Z,8.66
2018-03-08T19:20:31.836Z,8.72
2018-03-08T19:22:59.458Z,8.49
2018-03-08T19:25:28.947Z,8.51
2018-03-08T19:27:56.720Z,8.48
2018-03-08T19:30:24.318Z,8.39
2018-03-08T19:32:51.910Z,8.44
2018-03-08T19:35:19.525Z,8.35
2018-03-08T19:37:47.130Z,8.49
2018-03-08T19:40:14.738Z,8.50
2018-03-08T19:42:42.348Z,8.45
2018-03-08T19:45:09.973Z,8.25
2018-03-08T19:47:37.564Z,8.27
2018-03-08T19:50:05.452Z,8.30
2018-03-08T19:52:33.048Z,8.17
2018-03-08T19:55:00.632Z,8.21
2018-03-08T19:57:28.263Z,8.19
2018-03-08T19:59:55.861Z,8.24
2018-03-08T20:02:23.470Z,8.26
2018-03-08T20:04:51.058Z,8.13
2018-03-08T20:07:19.021Z,8.09
2018-03-08T20:09:46.619Z,8.03
2018-03-08T20:12:14.215Z,8.15
2018-03-08T20:14:41.837Z,8.05
2018-03-08T20:17:09.516Z,8.16
2018-03-08T20:19:37.130Z,8.09
2018-03-08T20:22:04.722Z,8.09
2018-03-08T20:24:32.532Z,7.99
2018-03-08T20:27:00.127Z,7.97
2018-03-08T20:29:27.710Z,7.87
2018-03-08T20:31:55.313Z,7.89
2018-03-08T20:34:22.906Z,7.80
2018-03-08T20:36:50.520Z,7.77
2018-03-08T20:39:18.110Z,7.81
2018-03-08T20:41:45.715Z,7.80
2018-03-08T20:44:13.305Z,7.83
2018-03-08T20:46:40.917Z,7.87
2018-03-08T20:49:08.611Z,7.99
2018-03-08T20:51:36.448Z,7.93
2018-03-08T20:54:04.032Z,7.95
2018-03-08T20:56:31.624Z,7.93
2018-03-08T20:58:59.237Z,7.88
2018-03-08T21:01:26.827Z,7.83
2018-03-08T21:03:54.436Z,7.90
2018-03-08T21:06:22.029Z,7.84
2018-03-08T21:08:49.654Z,7.96
2018-03-08T21:11:17.240Z,8.02
2018-03-08T21:13:44.827Z,7.93
2018-03-08T21:16:12.457Z,7.85
2018-03-08T21:18:40.047Z,7.86
2018-03-08T21:21:07.648Z,8.05
2018-03-08T21:23:35.235Z,8.05
2018-03-08T21:26:02.968Z,8.04
2018-03-08T21:28:30.569Z,8.08
2018-03-08T21:30:58.157Z,8.17
2018-03-08T21:33:25.770Z,8.14
2018-03-08T21:35:53.360Z,8.11
2018-03-08T21:38:20.995Z,8.05
2018-03-08T21:40:48.576Z,8.06
2018-03-08T21:43:16.414Z,8.17
2018-03-08T21:45:43.992Z,8.22
2018-03-08T21:48:11.581Z,8.24
2018-03-08T21:50:39.303Z,8.10
2018-03-08T21:53:06.902Z,8.30
2018-03-08T21:55:34.540Z,8.33
2018-03-08T21:58:02.137Z,8.31
2018-03-08T22:00:30.148Z,8.23
2018-03-08T22:02:57.740Z,8.35
2018-03-08T22:05:25.324Z,8.37
2018-03-08T22:07:52.932Z,8.40
2018-03-08T22:10:20.511Z,8.22
2018-03-08T22:12:48.118Z,7.85
2018-03-08T22:15:15.717Z,7.88
2018-03-08T22:17:43.372Z,7.75
2018-03-08T22:20:10.963Z,7.82
2018-03-08T22:22:38.599Z,7.74
2018-03-08T22:25:06.221Z,7.76
2018-03-08T22:27:33.831Z,7.90
2018-03-08T22:30:01.441Z,7.78
2018-03-08T22:32:29.042Z,7.74
2018-03-08T22:34:56.819Z,7.59
2018-03-08T22:37:24.412Z,7.18
2018-03-08T22:39:52.004Z,6.98
2018-03-08T22:42:19.625Z,6.96
2018-03-08T22:44:47.209Z,6.66
2018-03-08T22:47:14.827Z,6.53
2018-03-08T22:49:42.416Z,6.41
2018-03-08T22:52:10.054Z,6.21
2018-03-08T22:54:37.670Z,6.23
2018-03-08T22:57:05.337Z,6.28
2018-03-08T22:59:32.956Z,6.26
2018-03-08T23:02:09.040Z,6.30
2018-03-08T23:04:36.640Z,6.03
2018-03-08T23:07:04.232Z,6.14
2018-03-08T23:09:31.874Z,6.16
2018-03-08T23:11:59.455Z,6.06
2018-03-08T23:14:27.042Z,6.14
2018-03-08T23:16:54.647Z,5.94
2018-03-08T23:19:22.228Z,5.87
2018-03-08T23:21:49.961Z,5.89
2018-03-08T23:24:17.552Z,5.95
2018-03-08T23:26:45.235Z,5.88
2018-03-08T23:29:12.926Z,5.88
2018-03-08T23:31:40.895Z,5.82
2018-03-08T23:34:08.520Z,5.93
2018-03-08T23:36:36.118Z,5.75
2018-03-08T23:39:04.129Z,5.95
2018-03-08T23:41:31.749Z,5.63
2018-03-08T23:43:59.343Z,5.87
2018-03-08T23:46:26.949Z,5.86
2018-03-08T23:48:54.537Z,5.60
2018-03-08T23:51:22.167Z,5.55
2018-03-08T23:53:49.851Z,5.49
2018-03-08T23:56:17.548Z,5.24
2018-03-08T23:58:45.217Z,5.52
